CheckWX is a tool to help pilots better visualize weather data.  It is not intended as a substitute for an official pre-flight weather briefing.

22:50:12 UTC

0R4 METAR
Concordia Parish Airport
Vidalia, Louisiana, USA
Current

15 mins ago

K0R4 152235Z AUTO 19006KT 10SM SCT030 SCT042 SCT070 28/25 A2997 RMK AO2 LTG DSNT S AND SW T02780251
Observed
Jul-15 @ 22:35 UTC
Wind
  • 190° at 6 KTS
Visibility
10 SM
Flight Rules
VFR
Cloud Levels
  • Scattered at 3,000' AGL
  • Scattered at 4,200' AGL
  • Scattered at 7,000' AGL
Temperature
28°C / 82°F
Dewpoint
25°C / 77°F
Heat Index
32°C / 90°F
Humidity
84%
Altimeter
29.97" Hg
Pressure
1014.92 hPa
Previous

35 mins ago

K0R4 152215Z AUTO 17006KT 10SM CLR 28/25 A2996 RMK AO2 T02800248
Observed
Jul-15 @ 22:15 UTC
Wind
  • 170° at 6 KTS
Visibility
10 SM
Flight Rules
VFR
Cloud Levels
  • Clear skies
Temperature
28°C / 82°F
Dewpoint
25°C / 77°F
Heat Index
32°C / 90°F
Humidity
84%
Altimeter
29.96" Hg
Pressure
1014.52 hPa
Previous

1 hour ago

K0R4 152135Z AUTO 18009KT 10SM CLR 28/25 A2996 RMK AO2 LTG DSNT SW T02840245
Observed
Jul-15 @ 21:35 UTC
Wind
  • 180° at 9 KTS
Visibility
10 SM
Flight Rules
VFR
Cloud Levels
  • Clear skies
Temperature
28°C / 82°F
Dewpoint
25°C / 77°F
Heat Index
32°C / 90°F
Humidity
84%
Altimeter
29.96" Hg
Pressure
1014.52 hPa